首页
METAR-TAF:

METAR-TAF

机场 :

富兰克林, 宾夕法尼亚州, 美国

纬度: 41-23N, 经度: 079-52W, 海拔: 469米

当前天气观测

该预报发布于25分钟前的16:07 UTC
风速5节,风向多变
温度 3°C
湿度 93%
气压 1020 hPa
能見度: 11.3公里
散云层高于2800英尺
阴天层高于3400英尺

METAR: KFKL 201607Z AUTO VRB05KT 7SM SCT028 OVC034 03/02 A3012 RMK AO2

时间: 11:32 (16:32 UTC)

预报

该预报发布于21分钟前的16:11 UTC
预报有效从20日的 16点(UTC)到 21日的 12点(UTC)
风速6节,风向西北
能見度: 6.4公里
散云层高于2500英尺
多云层高于3500英尺
轻雾
短暂存在
从 20日的 16点(UTC)到 20日的 18点(UTC)
多云层高于2500英尺
阴天层高于3500英尺
从 21日的 0000点(UTC)
风速3节,风向西
能見度: 10公里
散云层高于25000英尺

TAF: KFKL 201611Z 2016/2112 31006KT 4SM BR SCT025 BKN035 TEMPO 2016/2018 BKN025 OVC035 FM210000 27003KT P6SM SCT250

超过4000个机场的气象观测和天气预报(METAR&TAF报告)。

可查询的气象台以黄色和红色小点在地图上表示。

将鼠标移到小点上方,可查看气象台名称。

然后点击查看天气观测和预报。

如需切换地图:点击带黑十字的绿色按钮放大地图;点击带横线的绿色按钮缩小地图;或者点击绿色箭头查看邻近地区的地图。


METAR-TAF: